createdAt,value
2023-06-23T00:00:14.043Z,19.11
2023-06-23T00:02:43.268Z,19.13
2023-06-23T00:05:09.925Z,19.19
2023-06-23T00:07:37.148Z,19.12
2023-06-23T00:10:07.427Z,19.17
2023-06-23T00:12:35.193Z,19.15
2023-06-23T00:15:02.877Z,19.12
2023-06-23T00:17:29.243Z,19.17
2023-06-23T00:19:55.695Z,19.17
2023-06-23T00:22:22.057Z,19.19
2023-06-23T00:24:48.514Z,19.15
2023-06-23T00:27:14.925Z,19.17
2023-06-23T00:29:41.611Z,19.18
2023-06-23T00:32:08.743Z,19.16
2023-06-23T00:34:35.135Z,19.23
2023-06-23T00:37:01.514Z,19.23
2023-06-23T00:39:28.053Z,19.27
2023-06-23T00:41:54.832Z,19.23
2023-06-23T00:44:21.275Z,19.22
2023-06-23T00:46:48.205Z,19.26
2023-06-23T00:49:15.838Z,19.27
2023-06-23T00:51:42.854Z,19.25
2023-06-23T00:54:09.226Z,19.19
2023-06-23T00:56:36.645Z,19.09
2023-06-23T00:59:03.884Z,19.11
2023-06-23T01:01:32.250Z,19.13
2023-06-23T01:04:00.816Z,19.10
2023-06-23T01:06:38.686Z,19.07
2023-06-23T01:09:17.210Z,18.97
2023-06-23T01:12:08.719Z,18.99
2023-06-23T01:14:46.203Z,18.99
2023-06-23T01:17:21.594Z,18.91
2023-06-23T01:19:55.826Z,18.83
2023-06-23T01:22:34.552Z,18.84
2023-06-23T01:25:27.642Z,18.82
2023-06-23T01:28:12.817Z,18.83
2023-06-23T01:30:43.800Z,18.87
2023-06-23T01:33:18.235Z,18.90
2023-06-23T01:35:48.725Z,18.89
2023-06-23T01:38:25.386Z,18.92
2023-06-23T01:40:55.200Z,18.90
2023-06-23T01:43:30.534Z,18.97
2023-06-23T01:46:04.631Z,18.94
2023-06-23T01:48:34.005Z,18.96
2023-06-23T01:51:03.386Z,18.96
2023-06-23T01:53:32.723Z,19.00
2023-06-23T01:56:05.279Z,19.07
2023-06-23T01:58:34.387Z,19.03
2023-06-23T02:01:01.800Z,19.08
2023-06-23T02:03:30.900Z,19.09
2023-06-23T02:05:58.108Z,19.09
2023-06-23T02:08:27.863Z,19.10
2023-06-23T02:10:56.175Z,19.13
2023-06-23T02:13:26.399Z,19.12
2023-06-23T02:15:54.723Z,19.16
2023-06-23T02:18:22.300Z,19.17
2023-06-23T02:20:51.030Z,19.18
2023-06-23T02:23:19.063Z,19.15
2023-06-23T02:25:46.377Z,19.13
2023-06-23T02:28:13.663Z,19.14
2023-06-23T02:30:41.584Z,19.16
2023-06-23T02:33:07.975Z,19.12
2023-06-23T02:35:34.842Z,19.13
2023-06-23T02:38:04.428Z,19.09
2023-06-23T02:40:34.421Z,19.10
2023-06-23T02:43:19.991Z,19.13
2023-06-23T02:45:54.491Z,19.15
2023-06-23T02:48:27.162Z,19.14
2023-06-23T02:50:57.279Z,19.15
2023-06-23T02:53:26.801Z,19.12
2023-06-23T02:56:05.729Z,19.11
2023-06-23T02:58:33.907Z,19.10
2023-06-23T03:01:05.763Z,19.08
2023-06-23T03:03:35.898Z,19.05
2023-06-23T03:06:02.691Z,19.07
2023-06-23T03:08:29.141Z,19.04
2023-06-23T03:10:55.934Z,19.08
2023-06-23T03:13:22.418Z,19.05
2023-06-23T03:15:55.669Z,19.05
2023-06-23T03:18:26.941Z,19.04
2023-06-23T03:20:58.033Z,19.02
2023-06-23T03:23:26.701Z,18.99
2023-06-23T03:25:53.861Z,18.96
2023-06-23T03:28:26.426Z,18.97
2023-06-23T03:31:07.994Z,18.96
2023-06-23T03:33:37.566Z,18.87
2023-06-23T03:36:14.618Z,18.70
2023-06-23T03:39:04.905Z,18.45
2023-06-23T03:41:33.568Z,18.28
2023-06-23T03:44:24.572Z,18.09
2023-06-23T03:46:55.219Z,17.90
2023-06-23T03:49:27.253Z,17.74
2023-06-23T03:51:58.986Z,17.72
2023-06-23T03:54:27.089Z,17.70
2023-06-23T03:56:56.077Z,17.72
2023-06-23T03:59:24.821Z,17.73
2023-06-23T04:01:52.906Z,17.76
2023-06-23T04:04:22.914Z,17.75
2023-06-23T04:06:51.010Z,17.76
2023-06-23T04:09:22.621Z,17.76
2023-06-23T04:11:51.559Z,17.71
2023-06-23T04:14:20.284Z,17.67
2023-06-23T04:16:49.646Z,17.71
2023-06-23T04:19:16.984Z,17.66
2023-06-23T04:21:43.916Z,17.71
2023-06-23T04:24:11.737Z,17.72
2023-06-23T04:26:40.728Z,17.73
2023-06-23T04:29:10.607Z,17.67
2023-06-23T04:31:39.844Z,17.65
2023-06-23T04:34:06.281Z,17.72
2023-06-23T04:36:43.885Z,17.73
2023-06-23T04:39:18.737Z,17.71
2023-06-23T04:41:48.850Z,17.72
2023-06-23T04:44:19.868Z,17.74
2023-06-23T04:46:47.333Z,17.74
2023-06-23T04:49:19.411Z,17.71
2023-06-23T04:51:48.590Z,17.76
2023-06-23T04:54:24.066Z,17.82
2023-06-23T04:56:52.844Z,17.86
2023-06-23T04:59:21.592Z,17.98
2023-06-23T05:01:49.125Z,18.03
2023-06-23T05:04:16.488Z,18.11
2023-06-23T05:06:44.897Z,18.17
2023-06-23T05:09:13.524Z,18.25
2023-06-23T05:11:42.376Z,18.34
2023-06-23T05:14:09.451Z,18.41
2023-06-23T05:16:38.993Z,18.37
2023-06-23T05:19:09.525Z,18.51
2023-06-23T05:21:36.927Z,18.53
2023-06-23T05:24:05.913Z,18.52
2023-06-23T05:26:35.250Z,18.73
2023-06-23T05:29:07.753Z,18.83
2023-06-23T05:31:37.939Z,18.70
2023-06-23T05:34:07.503Z,18.70
2023-06-23T05:36:36.940Z,18.85
2023-06-23T05:39:06.956Z,19.05
2023-06-23T05:41:33.618Z,19.03
2023-06-23T05:44:00.040Z,19.00
2023-06-23T05:46:29.609Z,18.88
2023-06-23T05:49:02.092Z,18.95
2023-06-23T05:51:32.985Z,18.88
2023-06-23T05:54:02.107Z,18.86
2023-06-23T05:56:45.313Z,18.83
2023-06-23T05:59:44.442Z,18.96
2023-06-23T06:02:19.543Z,19.17
2023-06-23T06:04:50.277Z,19.44
2023-06-23T06:07:19.276Z,19.74
2023-06-23T06:09:47.296Z,19.88
2023-06-23T06:12:15.134Z,19.98
2023-06-23T06:14:44.661Z,19.91
2023-06-23T06:17:12.605Z,20.12
2023-06-23T06:19:41.424Z,20.11
2023-06-23T06:22:10.962Z,20.14
2023-06-23T06:24:39.185Z,19.90
2023-06-23T06:27:08.493Z,20.07
2023-06-23T06:29:37.199Z,20.31
2023-06-23T06:32:08.698Z,20.39
2023-06-23T06:34:36.118Z,20.43
2023-06-23T06:37:04.008Z,20.26
2023-06-23T06:39:31.910Z,20.44
2023-06-23T06:41:58.967Z,20.56
2023-06-23T06:44:26.079Z,20.32
2023-06-23T06:46:53.631Z,20.02
2023-06-23T06:49:22.928Z,20.11
2023-06-23T06:51:50.729Z,20.07
2023-06-23T06:54:19.798Z,20.09
2023-06-23T06:56:46.956Z,20.16
2023-06-23T06:59:14.046Z,20.31
2023-06-23T07:01:41.687Z,20.49
2023-06-23T07:04:08.852Z,20.39
2023-06-23T07:06:37.906Z,20.52
2023-06-23T07:09:05.089Z,20.80
2023-06-23T07:11:33.040Z,21.09
2023-06-23T07:14:00.418Z,21.63
2023-06-23T07:16:31.590Z,21.81
2023-06-23T07:18:58.416Z,21.78
2023-06-23T07:21:25.069Z,22.50
2023-06-23T07:23:51.544Z,23.17
2023-06-23T07:26:17.928Z,23.29
2023-06-23T07:28:44.290Z,23.35
2023-06-23T07:31:10.769Z,24.03
2023-06-23T07:33:37.191Z,24.64
2023-06-23T07:36:03.576Z,24.29
2023-06-23T07:38:30.218Z,23.44
2023-06-23T07:40:56.592Z,23.74
2023-06-23T07:43:23.256Z,22.98
2023-06-23T07:45:49.687Z,22.93
2023-06-23T07:48:16.066Z,23.15
2023-06-23T07:50:44.506Z,23.63
2023-06-23T07:53:10.942Z,23.12
2023-06-23T07:55:37.294Z,22.59
2023-06-23T07:58:03.648Z,23.16
2023-06-23T08:00:30.424Z,24.33
2023-06-23T08:02:57.162Z,24.04
2023-06-23T08:05:24.797Z,23.26
2023-06-23T08:07:51.738Z,23.60
2023-06-23T08:10:18.156Z,22.25
2023-06-23T08:12:44.582Z,24.11
2023-06-23T08:15:11.371Z,23.95
2023-06-23T08:17:38.278Z,23.43
2023-06-23T08:20:05.348Z,23.40
2023-06-23T08:22:31.696Z,22.70
2023-06-23T08:24:58.099Z,22.66
2023-06-23T08:27:24.525Z,22.51
2023-06-23T08:29:50.897Z,22.48
2023-06-23T08:32:17.471Z,22.80
2023-06-23T08:34:43.820Z,23.65
2023-06-23T08:37:10.146Z,23.34
2023-06-23T08:39:36.481Z,23.66
2023-06-23T08:42:03.487Z,23.27
2023-06-23T08:44:32.106Z,23.11
2023-06-23T08:49:39.541Z,23.05
2023-06-23T08:52:06.459Z,23.27
2023-06-23T08:54:33.086Z,23.19
2023-06-23T08:57:00.110Z,23.67
2023-06-23T08:59:27.018Z,23.26
2023-06-23T09:01:53.590Z,23.23
2023-06-23T09:04:20.895Z,23.64
2023-06-23T09:06:47.516Z,23.52
2023-06-23T09:09:14.049Z,23.54
2023-06-23T09:11:42.206Z,23.95
2023-06-23T09:14:10.917Z,24.21
2023-06-23T09:16:39.314Z,23.82
2023-06-23T09:19:08.142Z,23.44
2023-06-23T09:21:38.347Z,23.31
2023-06-23T09:24:08.746Z,23.23
2023-06-23T09:26:44.969Z,23.07
2023-06-23T09:29:19.835Z,23.11
2023-06-23T09:31:49.182Z,23.40
2023-06-23T09:34:30.852Z,23.82
2023-06-23T09:37:14.418Z,23.42
2023-06-23T09:39:42.365Z,23.59
2023-06-23T09:42:15.787Z,23.44
2023-06-23T09:44:46.346Z,23.55
2023-06-23T09:47:15.721Z,23.70
2023-06-23T09:49:43.814Z,24.15
2023-06-23T09:52:14.425Z,24.01
2023-06-23T09:54:42.136Z,23.92
2023-06-23T09:57:16.881Z,24.15
2023-06-23T09:59:45.611Z,24.45
2023-06-23T10:02:34.390Z,23.68
2023-06-23T10:05:04.347Z,23.47
2023-06-23T10:07:31.581Z,23.46
2023-06-23T10:10:21.022Z,23.66
2023-06-23T10:12:49.751Z,23.95
2023-06-23T10:15:16.687Z,24.37
2023-06-23T10:17:43.406Z,24.54
2023-06-23T10:20:10.056Z,24.50
2023-06-23T10:22:37.872Z,24.54
2023-06-23T10:25:08.650Z,24.58
2023-06-23T10:27:36.691Z,24.83
2023-06-23T10:30:04.364Z,24.72
2023-06-23T10:32:34.400Z,24.55
2023-06-23T10:35:07.686Z,24.48
2023-06-23T10:37:44.442Z,24.49
2023-06-23T10:40:12.688Z,24.30
2023-06-23T10:42:40.960Z,24.69
2023-06-23T10:45:09.308Z,25.33
2023-06-23T10:47:36.018Z,25.89
2023-06-23T10:50:03.152Z,25.84
2023-06-23T10:52:29.695Z,25.00
2023-06-23T10:54:56.179Z,24.62
2023-06-23T10:57:24.190Z,25.02
2023-06-23T11:00:04.520Z,25.03
2023-06-23T11:02:31.017Z,25.08
2023-06-23T11:05:04.422Z,24.80
2023-06-23T11:07:33.271Z,24.94
2023-06-23T11:10:03.098Z,24.97
2023-06-23T11:12:29.876Z,25.48
2023-06-23T11:15:24.992Z,25.44
2023-06-23T11:18:12.616Z,25.75
2023-06-23T11:20:44.958Z,25.21
2023-06-23T11:23:13.311Z,25.12
2023-06-23T11:25:48.114Z,24.94
2023-06-23T11:28:35.054Z,24.81
2023-06-23T11:31:14.496Z,24.70
2023-06-23T11:33:46.062Z,25.07
2023-06-23T11:36:17.171Z,25.54
2023-06-23T11:38:44.818Z,25.86
2023-06-23T11:41:14.523Z,25.75
2023-06-23T11:43:43.454Z,25.23
2023-06-23T11:46:11.928Z,25.42
2023-06-23T11:48:38.415Z,25.57
2023-06-23T11:51:07.687Z,25.22
2023-06-23T11:53:34.657Z,25.10
2023-06-23T11:56:02.776Z,24.60
2023-06-23T11:58:33.416Z,24.45
2023-06-23T12:01:00.634Z,24.77
2023-06-23T12:03:27.430Z,25.24
2023-06-23T12:05:54.067Z,25.89
2023-06-23T12:08:23.702Z,26.23
2023-06-23T12:10:52.421Z,26.00
2023-06-23T12:13:20.332Z,25.96
2023-06-23T12:15:46.941Z,25.53
2023-06-23T12:18:13.592Z,25.14
2023-06-23T12:20:42.790Z,25.04
2023-06-23T12:23:11.673Z,24.96
2023-06-23T12:25:52.040Z,25.14
2023-06-23T12:28:20.992Z,25.62
2023-06-23T12:30:51.203Z,25.72
2023-06-23T12:33:22.032Z,26.02
2023-06-23T12:35:58.893Z,26.01
2023-06-23T12:38:25.324Z,26.07
2023-06-23T12:40:52.289Z,26.33
2023-06-23T12:43:20.098Z,26.67
2023-06-23T12:45:50.719Z,27.31
2023-06-23T12:48:21.259Z,27.50
2023-06-23T12:50:47.641Z,28.01
2023-06-23T12:53:14.075Z,27.67
2023-06-23T12:55:40.594Z,26.84
2023-06-23T12:58:06.951Z,26.74
2023-06-23T13:00:33.272Z,26.53
2023-06-23T13:03:01.783Z,26.54
2023-06-23T13:05:30.059Z,26.37
2023-06-23T13:07:56.460Z,26.75
2023-06-23T13:10:23.215Z,26.69
2023-06-23T13:12:49.665Z,26.44
2023-06-23T13:15:17.692Z,26.06
2023-06-23T13:17:44.290Z,26.53
2023-06-23T13:20:11.888Z,26.58
2023-06-23T13:22:38.468Z,26.98
2023-06-23T13:25:05.518Z,27.09
2023-06-23T13:27:31.898Z,27.36
2023-06-23T13:29:58.915Z,27.48
2023-06-23T13:32:25.366Z,27.59
2023-06-23T13:34:51.740Z,27.09
2023-06-23T13:37:18.768Z,27.25
2023-06-23T13:39:45.132Z,26.93
2023-06-23T13:42:11.458Z,26.87
2023-06-23T13:44:37.817Z,27.26
2023-06-23T13:47:04.656Z,27.34
2023-06-23T13:49:31.172Z,27.30
2023-06-23T13:51:57.674Z,27.27
2023-06-23T13:54:24.332Z,27.66
2023-06-23T13:56:50.756Z,27.94
2023-06-23T13:59:17.154Z,28.34
2023-06-23T14:01:43.593Z,27.69
2023-06-23T14:04:09.954Z,27.23
2023-06-23T14:06:36.434Z,27.27
2023-06-23T14:09:04.469Z,26.88
2023-06-23T14:11:30.799Z,27.12
2023-06-23T14:13:57.142Z,27.78
2023-06-23T14:16:23.517Z,28.54
2023-06-23T14:18:50.128Z,28.82
2023-06-23T14:21:17.347Z,28.71
2023-06-23T14:23:43.690Z,28.02
2023-06-23T14:26:10.090Z,27.50
2023-06-23T14:28:36.481Z,27.42
2023-06-23T14:31:04.117Z,27.20
2023-06-23T14:33:30.537Z,27.13
2023-06-23T14:35:56.982Z,26.69
2023-06-23T14:38:23.582Z,26.10
2023-06-23T14:40:49.985Z,26.27
2023-06-23T14:43:16.891Z,26.49
2023-06-23T14:45:50.385Z,26.86
2023-06-23T14:48:16.817Z,27.14
2023-06-23T14:50:43.679Z,27.53
2023-06-23T14:53:10.110Z,27.83
2023-06-23T14:55:37.840Z,27.71
2023-06-23T14:58:04.838Z,27.59
2023-06-23T15:00:31.327Z,27.72
2023-06-23T15:02:57.830Z,27.57
2023-06-23T15:05:24.790Z,27.45
2023-06-23T15:07:51.572Z,27.39
2023-06-23T15:10:18.303Z,27.50
2023-06-23T15:12:44.669Z,27.30
2023-06-23T15:15:11.462Z,26.96
2023-06-23T15:17:37.998Z,26.66
2023-06-23T15:20:05.868Z,26.48
2023-06-23T15:22:32.414Z,26.54
2023-06-23T15:24:59.296Z,26.82
2023-06-23T15:27:26.515Z,27.23
2023-06-23T15:29:53.061Z,27.39
2023-06-23T15:32:19.522Z,27.51
2023-06-23T15:34:45.856Z,27.17
2023-06-23T15:37:12.254Z,27.09
2023-06-23T15:39:42.200Z,27.04
2023-06-23T15:42:12.041Z,27.29
2023-06-23T15:44:40.380Z,27.23
2023-06-23T15:47:08.097Z,27.46
2023-06-23T15:49:34.939Z,27.33
2023-06-23T15:52:01.400Z,27.45
2023-06-23T15:54:29.888Z,27.41
2023-06-23T15:56:57.571Z,27.68
2023-06-23T15:59:24.028Z,27.79
2023-06-23T16:01:50.393Z,27.86
2023-06-23T16:04:17.123Z,28.32
2023-06-23T16:06:43.836Z,27.87
2023-06-23T16:09:10.314Z,27.95
2023-06-23T16:11:36.692Z,28.15
2023-06-23T16:14:03.236Z,28.09
2023-06-23T16:16:29.639Z,28.18
2023-06-23T16:18:56.731Z,27.93
2023-06-23T16:21:23.113Z,27.58
2023-06-23T16:23:49.495Z,27.36
2023-06-23T16:26:15.882Z,27.61
2023-06-23T16:28:42.229Z,27.62
2023-06-23T16:31:08.619Z,27.57
2023-06-23T16:33:35.821Z,27.63
2023-06-23T16:36:03.665Z,27.65
2023-06-23T16:38:30.991Z,27.67
2023-06-23T16:40:57.361Z,27.15
2023-06-23T16:43:23.822Z,26.99
2023-06-23T16:45:50.286Z,26.96
2023-06-23T16:48:16.781Z,26.98
2023-06-23T16:50:43.234Z,27.07
2023-06-23T16:53:11.387Z,26.94
2023-06-23T16:55:38.466Z,26.79
2023-06-23T16:58:04.991Z,26.56
2023-06-23T17:00:32.057Z,26.65
2023-06-23T17:02:58.494Z,26.63
2023-06-23T17:05:25.033Z,26.52
2023-06-23T17:07:51.546Z,26.51
2023-06-23T17:10:17.914Z,26.58
2023-06-23T17:12:44.283Z,26.60
2023-06-23T17:15:11.492Z,26.51
2023-06-23T17:17:37.967Z,26.50
2023-06-23T17:20:05.004Z,26.37
2023-06-23T17:22:31.744Z,26.28
2023-06-23T17:24:58.131Z,26.23
2023-06-23T17:27:24.490Z,26.28
2023-06-23T17:29:52.639Z,26.30
2023-06-23T17:32:19.990Z,26.22
2023-06-23T17:34:46.388Z,26.29
2023-06-23T17:37:13.164Z,26.33
2023-06-23T17:39:39.500Z,26.29
2023-06-23T17:42:06.125Z,26.32
2023-06-23T17:44:32.446Z,26.45
2023-06-23T17:46:59.044Z,26.67
2023-06-23T17:49:25.445Z,26.81
2023-06-23T17:51:51.878Z,26.69
2023-06-23T17:54:18.288Z,26.70
2023-06-23T17:56:44.670Z,26.53
2023-06-23T17:59:11.207Z,26.67
2023-06-23T18:01:38.385Z,26.89
2023-06-23T18:04:05.159Z,27.05
2023-06-23T18:06:35.683Z,27.13
2023-06-23T18:09:02.063Z,27.22
2023-06-23T18:11:28.419Z,27.32
2023-06-23T18:13:54.744Z,27.21
2023-06-23T18:16:21.397Z,26.99
2023-06-23T18:18:48.031Z,26.96
2023-06-23T18:21:14.504Z,26.88
2023-06-23T18:23:40.891Z,26.72
2023-06-23T18:26:07.230Z,26.41
2023-06-23T18:28:34.496Z,26.30
2023-06-23T18:31:01.040Z,26.15
2023-06-23T18:33:27.464Z,26.23
2023-06-23T18:35:53.896Z,25.97
2023-06-23T18:38:20.306Z,25.83
2023-06-23T18:40:47.171Z,25.57
2023-06-23T18:43:13.637Z,25.37
2023-06-23T18:45:39.973Z,25.20
2023-06-23T18:48:06.530Z,24.84
2023-06-23T18:50:33.077Z,24.56
2023-06-23T18:52:59.689Z,24.32
2023-06-23T18:55:26.127Z,24.11
2023-06-23T18:57:52.529Z,23.92
2023-06-23T19:00:19.307Z,23.74
2023-06-23T19:02:45.713Z,23.65
2023-06-23T19:05:12.803Z,23.52
2023-06-23T19:07:39.278Z,23.38
2023-06-23T19:10:05.979Z,23.30
2023-06-23T19:12:32.374Z,23.16
2023-06-23T19:14:58.785Z,23.02
2023-06-23T19:17:25.291Z,22.93
2023-06-23T19:19:51.822Z,22.71
2023-06-23T19:22:19.342Z,22.61
2023-06-23T19:24:45.770Z,22.50
2023-06-23T19:27:12.089Z,22.40
2023-06-23T19:29:38.513Z,22.35
2023-06-23T19:32:07.856Z,22.20
2023-06-23T19:34:35.485Z,22.13
2023-06-23T19:37:02.388Z,22.09
2023-06-23T19:39:29.221Z,22.01
2023-06-23T19:41:55.691Z,21.92
2023-06-23T19:44:22.273Z,21.75
2023-06-23T19:46:48.933Z,21.72
2023-06-23T19:49:15.347Z,21.70
2023-06-23T19:51:41.729Z,21.66
2023-06-23T19:54:08.220Z,21.57
2023-06-23T19:56:34.725Z,21.43
2023-06-23T19:59:01.173Z,21.32
2023-06-23T20:01:27.795Z,21.26
2023-06-23T20:03:54.330Z,21.21
2023-06-23T20:06:21.545Z,21.13
2023-06-23T20:08:51.065Z,21.14
2023-06-23T20:11:17.511Z,21.05
2023-06-23T20:13:44.169Z,21.00
2023-06-23T20:16:10.639Z,20.92
2023-06-23T20:18:37.158Z,20.82
2023-06-23T20:21:03.670Z,20.75
2023-06-23T20:23:30.704Z,20.76
2023-06-23T20:25:58.991Z,20.65
2023-06-23T20:28:25.499Z,20.67
2023-06-23T20:30:51.885Z,20.59
2023-06-23T20:33:18.388Z,20.43
2023-06-23T20:35:45.131Z,20.33
2023-06-23T20:38:11.523Z,20.20
2023-06-23T20:40:37.940Z,20.15
2023-06-23T20:43:04.412Z,20.15
2023-06-23T20:45:30.873Z,20.08
2023-06-23T20:47:57.888Z,19.99
2023-06-23T20:50:24.405Z,19.94
2023-06-23T20:52:50.769Z,19.89
2023-06-23T20:55:17.166Z,19.75
2023-06-23T20:57:43.579Z,19.58
2023-06-23T21:00:11.624Z,19.37
2023-06-23T21:02:38.161Z,19.20
2023-06-23T21:05:04.707Z,19.05
2023-06-23T21:07:31.054Z,18.90
2023-06-23T21:09:57.434Z,18.77
2023-06-23T21:12:23.798Z,18.66
2023-06-23T21:15:04.001Z,18.55
2023-06-23T21:17:31.885Z,18.42
2023-06-23T21:19:58.251Z,18.34
2023-06-23T21:22:24.664Z,18.26
2023-06-23T21:24:51.086Z,18.25
2023-06-23T21:27:17.644Z,18.16
2023-06-23T21:29:44.009Z,18.13
2023-06-23T21:32:10.344Z,18.15
2023-06-23T21:34:36.744Z,18.07
2023-06-23T21:37:03.229Z,18.11
2023-06-23T21:39:29.607Z,18.10
2023-06-23T21:41:55.992Z,18.20
2023-06-23T21:44:22.484Z,18.26
2023-06-23T21:46:48.922Z,18.25
2023-06-23T21:49:15.300Z,18.14
2023-06-23T21:51:42.303Z,18.07
2023-06-23T21:54:09.125Z,17.96
2023-06-23T21:56:35.470Z,17.91
2023-06-23T21:59:01.789Z,17.83
2023-06-23T22:01:29.876Z,17.87
2023-06-23T22:03:57.435Z,17.81
2023-06-23T22:06:24.018Z,17.77
2023-06-23T22:08:50.402Z,17.77
2023-06-23T22:11:16.879Z,17.73
2023-06-23T22:13:43.326Z,17.69
2023-06-23T22:16:09.729Z,17.71
2023-06-23T22:18:48.933Z,17.89
2023-06-23T22:21:19.340Z,17.93
2023-06-23T22:23:46.096Z,17.93
2023-06-23T22:26:12.843Z,17.96
2023-06-23T22:28:39.250Z,18.16
2023-06-23T22:31:06.554Z,18.13
2023-06-23T22:33:35.525Z,18.03
2023-06-23T22:36:02.002Z,17.89
2023-06-23T22:38:28.410Z,17.75
2023-06-23T22:40:54.941Z,17.66
2023-06-23T22:43:21.364Z,17.64
2023-06-23T22:45:47.768Z,17.80
2023-06-23T22:48:14.311Z,17.80
2023-06-23T22:50:40.658Z,17.72
2023-06-23T22:53:07.054Z,17.62
2023-06-23T22:55:33.479Z,17.56
2023-06-23T22:58:00.065Z,17.50
2023-06-23T23:00:26.450Z,17.58
2023-06-23T23:02:52.952Z,17.75
2023-06-23T23:05:19.375Z,17.74
2023-06-23T23:07:48.655Z,17.69
2023-06-23T23:10:15.185Z,17.50
2023-06-23T23:12:42.369Z,17.49
2023-06-23T23:15:09.955Z,17.40
2023-06-23T23:17:37.453Z,17.37
2023-06-23T23:20:10.806Z,17.35
2023-06-23T23:22:38.071Z,17.39
2023-06-23T23:25:05.928Z,17.44
2023-06-23T23:27:37.011Z,17.36
2023-06-23T23:30:07.706Z,17.25
2023-06-23T23:32:38.535Z,17.19
2023-06-23T23:35:06.885Z,17.05
2023-06-23T23:37:33.896Z,16.96
2023-06-23T23:40:00.735Z,16.84
2023-06-23T23:42:27.085Z,16.76
2023-06-23T23:44:53.477Z,16.71
2023-06-23T23:47:19.987Z,16.68
2023-06-23T23:49:46.421Z,16.64
2023-06-23T23:52:12.792Z,16.59
2023-06-23T23:54:40.238Z,16.54
2023-06-23T23:57:07.086Z,16.53
2023-06-23T23:59:35.105Z,16.52
